AU-0020 weather

Kukerin
Kukerin WA, Western Australia, Australia

Public forecast

Using degrees Celsius for public forecast. Weather courtesy of forecast.io.

METAR (pilot weather report)

Closest report is Albany Airport, 107.1 nm (198.3 km) S. Retrieved 2019/05/21 12:00 UTC (35 minutes ago):

YABA 211200Z AUTO 02005KT 9999 // SCT057 11/09 Q1022

TAF (pilot weather forecast)

Closest forecast is Perth Jandakot Airport, 128.8 nm (238.6 km) WNW. Retrieved 2019/05/21 12:00 UTC (35 minutes ago):

TAF YPJT 211033Z 2112/2206 21004KT CAVOK FM211500 07005KT CAVOK FM220200 02007KT CAVOK FM220500 26008KT CAVOK